Time;durP1;ratioP1;P1;durP2;ratioP2;P2;SDS_P1;SDS_P2;PMS_P1;PMS_P2;Temp;Humidity;BMP_temperature;BMP_pressure;BME280_temperature;BME280_humidity;BME280_pressure;Samples;Min_cycle;Max_cycle;Signal;HPM_P1;HPM_P2
2021/12/21 00:02:24;;;;;;;4.13;2.90;;;3.50;99.90;;;;;;5109845;28;20449;-55
2021/12/21 00:04:51;;;;;;;99.20;6.50;;;3.50;99.90;;;;;;5108825;28;20797;-56
2021/12/21 00:07:19;;;;;;;4.87;2.70;;;3.50;99.90;;;;;;5108156;28;20522;-53
2021/12/21 00:09:46;;;;;;;2.87;2.53;;;3.60;99.90;;;;;;5108111;28;20481;-56
2021/12/21 00:12:16;;;;;;;5.37;3.37;;;3.60;99.90;;;;;;5108537;28;20453;-53
2021/12/21 00:14:56;;;;;;;5.50;3.67;;;3.60;99.90;;;;;;5107555;28;20930;-56
2021/12/21 00:17:44;;;;;;;8.40;3.00;;;3.60;99.90;;;;;;5108630;28;20426;-57
2021/12/21 00:20:24;;;;;;;20.80;2.80;;;3.60;99.90;;;;;;5107940;28;20466;-56
2021/12/21 00:25:33;;;;;;;4.93;2.90;;;3.60;99.90;;;;;;5099704;28;20525;-50
2021/12/21 00:28:02;;;;;;;4.43;2.13;;;3.60;99.90;;;;;;5108184;28;20455;-54
2021/12/21 00:30:29;;;;;;;4.60;2.27;;;3.60;99.90;;;;;;5108451;28;20488;-57
2021/12/21 00:32:55;;;;;;;4.77;2.50;;;3.50;99.90;;;;;;5108106;28;20524;-56
2021/12/21 00:35:22;;;;;;;2.83;1.83;;;3.50;99.90;;;;;;5108390;28;20456;-57
2021/12/21 00:37:49;;;;;;;3.30;2.17;;;3.50;99.90;;;;;;5108928;28;20477;-54
2021/12/21 00:40:18;;;;;;;2.57;1.90;;;3.60;99.90;;;;;;5109357;28;20487;-53
2021/12/21 00:42:45;;;;;;;2.80;1.80;;;3.60;99.90;;;;;;5109114;28;20437;-54
2021/12/21 00:45:12;;;;;;;3.97;2.27;;;3.60;99.90;;;;;;5109188;28;20449;-51
2021/12/21 00:47:41;;;;;;;2.60;1.53;;;3.60;99.90;;;;;;5108945;28;20434;-53
2021/12/21 00:50:16;;;;;;;4.03;1.70;;;3.50;99.90;;;;;;5109165;28;20899;-52
2021/12/21 00:52:43;;;;;;;2.07;1.67;;;3.50;99.90;;;;;;5110980;28;20462;-55
2021/12/21 00:55:10;;;;;;;7.03;2.00;;;3.50;99.90;;;;;;5110046;28;20449;-56
2021/12/21 00:57:38;;;;;;;2.20;1.50;;;3.30;99.90;;;;;;5109787;28;20457;-54
2021/12/21 01:00:07;;;;;;;3.30;1.60;;;3.30;99.90;;;;;;5109897;28;20464;-56
2021/12/21 01:02:34;;;;;;;3.07;1.70;;;3.20;99.90;;;;;;5109428;28;20462;-56
2021/12/21 01:05:02;;;;;;;2.60;1.53;;;3.30;99.90;;;;;;5109550;28;20442;-54
2021/12/21 01:07:34;;;;;;;2.63;2.00;;;3.30;99.90;;;;;;5108765;28;20461;-54
2021/12/21 01:10:29;;;;;;;2.43;1.33;;;3.30;99.90;;;;;;5109469;28;20466;-54
2021/12/21 01:13:08;;;;;;;2.17;1.97;;;3.30;99.90;;;;;;5109737;28;20776;-55
2021/12/21 01:15:50;;;;;;;2.70;1.50;;;3.30;99.90;;;;;;5110617;28;20465;-53
2021/12/21 01:18:21;;;;;;;7.00;1.60;;;3.30;99.90;;;;;;5109351;28;20863;-51
2021/12/21 01:20:51;;;;;;;1.50;1.30;;;3.30;99.90;;;;;;5109270;28;20949;-54
2021/12/21 01:23:47;;;;;;;3.27;1.70;;;3.30;99.90;;;;;;5109257;28;20445;-55
2021/12/21 01:26:20;;;;;;;2.80;1.70;;;3.20;99.90;;;;;;5109482;28;20545;-54
2021/12/21 01:28:57;;;;;;;4.17;2.20;;;3.30;99.90;;;;;;5109400;28;20639;-52
2021/12/21 01:31:30;;;;;;;2.50;2.30;;;3.30;99.90;;;;;;5110614;28;20476;-54
2021/12/21 01:34:11;;;;;;;3.10;1.80;;;3.20;99.90;;;;;;5111705;28;20473;-54
2021/12/21 01:36:45;;;;;;;4.60;2.97;;;3.10;99.90;;;;;;5112055;28;20541;-55
2021/12/21 01:39:28;;;;;;;2.27;1.70;;;3.10;99.90;;;;;;5113013;28;20498;-56
2021/12/21 01:42:01;;;;;;;3.53;1.93;;;3.00;99.90;;;;;;5112093;28;20430;-57
2021/12/21 01:49:31;;;;;;;1.73;1.47;;;2.90;99.90;;;;;;5112795;28;20466;-54
2021/12/21 01:50:01;;;;;;;1.67;1.00;;;2.70;99.90;;;;;;5112468;28;20444;-54
2021/12/21 01:52:29;;;;;;;1.90;1.70;;;2.70;99.90;;;;;;5112125;28;20443;-56
2021/12/21 01:54:56;;;;;;;4.90;2.37;;;2.70;99.90;;;;;;5112409;28;20454;-52
2021/12/21 01:57:23;;;;;;;5.00;2.70;;;2.70;99.90;;;;;;5112589;28;20501;-55
2021/12/21 01:59:52;;;;;;;3.40;1.53;;;2.60;99.90;;;;;;5110784;28;20510;-53
2021/12/21 02:02:20;;;;;;;2.80;2.13;;;2.60;99.90;;;;;;5111057;28;20441;-56
2021/12/21 02:04:47;;;;;;;4.73;2.50;;;2.60;99.90;;;;;;5110666;28;20454;-49
2021/12/21 02:07:14;;;;;;;7.40;4.27;;;2.70;99.90;;;;;;5111813;28;20449;-55
2021/12/21 02:09:41;;;;;;;3.90;2.30;;;2.70;99.90;;;;;;5111633;28;20537;-52
2021/12/21 02:12:11;;;;;;;2.63;2.00;;;2.70;99.90;;;;;;5111673;28;20482;-50
2021/12/21 02:14:39;;;;;;;3.57;2.30;;;2.70;99.90;;;;;;5110711;28;20436;-53
2021/12/21 02:17:30;;;;;;;3.83;2.20;;;2.80;99.90;;;;;;5110944;28;20426;-56
2021/12/21 02:20:07;;;;;;;2.80;1.87;;;2.80;99.90;;;;;;5109901;28;20444;-55
2021/12/21 02:22:39;;;;;;;4.73;2.30;;;2.90;99.90;;;;;;5110630;28;20552;-53
2021/12/21 02:25:30;;;;;;;1.83;1.70;;;3.00;99.90;;;;;;5110238;28;20440;-56
2021/12/21 02:27:58;;;;;;;6.40;3.17;;;3.00;99.90;;;;;;5110410;28;20462;-54
2021/12/21 02:30:25;;;;;;;4.43;2.70;;;3.00;99.90;;;;;;5110437;28;20472;-56
2021/12/21 02:32:53;;;;;;;4.40;3.23;;;3.00;99.90;;;;;;5110332;28;20445;-55
2021/12/21 02:35:21;;;;;;;8.20;3.00;;;3.00;99.90;;;;;;5109669;28;20571;-55
2021/12/21 02:37:48;;;;;;;3.07;2.07;;;3.00;99.90;;;;;;5110169;28;20454;-56
2021/12/21 02:40:14;;;;;;;3.43;1.93;;;3.10;99.90;;;;;;5110226;28;20480;-55
2021/12/21 02:42:43;;;;;;;6.47;2.20;;;3.10;99.90;;;;;;5109020;28;20441;-55
2021/12/21 02:45:11;;;;;;;3.00;2.13;;;3.10;99.90;;;;;;5109073;28;20453;-54
2021/12/21 02:47:38;;;;;;;5.50;3.63;;;3.20;99.90;;;;;;5102914;28;20442;-52
2021/12/21 02:50:06;;;;;;;4.10;2.07;;;3.20;99.90;;;;;;5102036;28;20442;-54
2021/12/21 02:52:35;;;;;;;5.60;2.13;;;3.20;99.90;;;;;;5101906;28;21074;-52
2021/12/21 02:55:03;;;;;;;5.80;3.10;;;3.30;99.90;;;;;;5102669;28;20442;-52
2021/12/21 02:57:30;;;;;;;3.83;3.30;;;3.30;99.90;;;;;;5102537;28;20481;-53
2021/12/21 02:59:57;;;;;;;6.47;2.80;;;3.40;99.90;;;;;;5101898;28;20457;-52
2021/12/21 03:02:24;;;;;;;4.30;2.67;;;3.50;99.90;;;;;;5102804;28;20437;-53
2021/12/21 03:04:51;;;;;;;3.70;2.77;;;3.50;99.90;;;;;;5103181;28;20953;-49
2021/12/21 03:07:47;;;;;;;9.70;3.23;;;3.40;99.90;;;;;;5102275;28;20446;-53
2021/12/21 03:10:15;;;;;;;2.50;1.60;;;3.40;99.90;;;;;;5103179;28;20565;-51
2021/12/21 03:15:28;;;;;;;9.37;3.27;;;3.40;99.90;;;;;;5104286;28;20468;-55
2021/12/21 03:17:57;;;;;;;4.43;2.30;;;3.40;99.90;;;;;;5104876;28;20446;-54
2021/12/21 03:20:25;;;;;;;4.63;2.93;;;3.40;99.90;;;;;;5104803;28;20446;-55
2021/12/21 03:22:52;;;;;;;4.97;3.10;;;3.40;99.90;;;;;;5104591;28;20523;-53
2021/12/21 03:25:20;;;;;;;5.00;2.90;;;3.40;99.90;;;;;;5105747;28;20454;-54
2021/12/21 03:27:47;;;;;;;4.17;3.30;;;3.40;99.90;;;;;;5104887;28;20445;-51
2021/12/21 03:30:16;;;;;;;3.50;2.50;;;3.40;99.90;;;;;;5105784;28;20430;-54
2021/12/21 03:32:43;;;;;;;3.60;3.03;;;3.40;99.90;;;;;;5105507;28;21034;-55
2021/12/21 03:35:11;;;;;;;5.70;2.90;;;3.40;99.90;;;;;;5105399;28;20472;-56
2021/12/21 03:37:38;;;;;;;10.07;2.87;;;3.40;99.90;;;;;;5105905;28;20468;-54
2021/12/21 03:40:06;;;;;;;6.30;4.23;;;3.30;99.90;;;;;;5106130;28;20934;-54
2021/12/21 03:42:35;;;;;;;7.07;3.30;;;3.30;99.90;;;;;;5106003;28;20450;-51
2021/12/21 03:45:02;;;;;;;5.50;3.60;;;3.30;99.90;;;;;;5105836;28;20442;-54
2021/12/21 03:47:30;;;;;;;3.77;2.17;;;3.30;99.90;;;;;;5106282;28;20479;-56
2021/12/21 03:50:00;;;;;;;4.83;2.83;;;3.40;99.90;;;;;;5105581;28;20461;-51
2021/12/21 03:52:28;;;;;;;6.40;3.43;;;3.40;99.90;;;;;;5105569;28;20497;-54
2021/12/21 03:54:57;;;;;;;5.03;3.40;;;3.40;99.90;;;;;;5105080;28;20434;-54
2021/12/21 03:57:25;;;;;;;8.00;4.07;;;3.40;99.90;;;;;;5104596;28;20445;-54
2021/12/21 03:59:54;;;;;;;6.63;4.13;;;3.30;99.90;;;;;;5104537;28;20824;-54
2021/12/21 04:02:24;;;;;;;7.50;3.23;;;3.30;99.90;;;;;;5104605;28;20525;-54
2021/12/21 04:04:53;;;;;;;4.97;3.67;;;3.40;99.90;;;;;;5104619;28;20473;-53
2021/12/21 04:07:19;;;;;;;6.93;3.80;;;3.40;99.90;;;;;;5104796;28;20841;-51
2021/12/21 04:09:48;;;;;;;6.50;4.00;;;3.40;99.90;;;;;;5104483;28;20438;-55
2021/12/21 04:12:15;;;;;;;4.37;3.70;;;3.40;99.90;;;;;;5103759;28;20543;-55
2021/12/21 04:14:44;;;;;;;9.10;4.30;;;3.50;99.90;;;;;;5103657;28;20813;-54
2021/12/21 04:17:18;;;;;;;11.60;3.80;;;3.50;99.90;;;;;;5104804;28;20794;-51
2021/12/21 04:19:45;;;;;;;8.60;3.63;;;3.50;99.90;;;;;;5106140;28;20430;-52
2021/12/21 04:22:12;;;;;;;4.77;2.70;;;3.40;99.90;;;;;;5105969;28;20434;-53
2021/12/21 04:24:39;;;;;;;5.83;3.57;;;3.40;99.90;;;;;;5103318;28;20894;-53
2021/12/21 04:27:06;;;;;;;8.00;3.63;;;3.40;99.90;;;;;;5104185;28;20446;-47
2021/12/21 04:29:36;;;;;;;6.60;3.50;;;3.30;99.90;;;;;;5104506;28;20488;-52
2021/12/21 04:32:03;;;;;;;12.73;4.40;;;3.30;99.90;;;;;;5103576;28;20562;-54
2021/12/21 04:34:32;;;;;;;6.90;3.27;;;3.30;99.90;;;;;;5103692;28;20456;-52
2021/12/21 04:37:00;;;;;;;6.47;3.70;;;3.30;99.90;;;;;;5104022;28;20537;-51
2021/12/21 04:39:34;;;;;;;6.20;3.47;;;3.30;99.90;;;;;;5104419;28;20476;-54
2021/12/21 04:42:01;;;;;;;6.93;4.20;;;3.30;99.90;;;;;;5104441;28;20594;-53
2021/12/21 04:44:28;;;;;;;6.10;3.47;;;3.30;99.90;;;;;;5103350;28;20442;-52
2021/12/21 04:46:54;;;;;;;8.43;4.73;;;3.30;99.90;;;;;;5104439;28;20453;-49
2021/12/21 04:49:22;;;;;;;6.20;3.30;;;3.30;99.90;;;;;;5103727;28;20495;-52
2021/12/21 04:51:50;;;;;;;5.90;3.83;;;3.40;99.90;;;;;;5103671;28;20481;-50
2021/12/21 04:54:17;;;;;;;7.13;4.33;;;3.40;99.90;;;;;;5104131;28;20495;-54
2021/12/21 04:56:44;;;;;;;6.37;4.00;;;3.40;99.90;;;;;;5103442;28;20453;-52
2021/12/21 04:59:10;;;;;;;5.33;3.90;;;3.50;99.90;;;;;;5103888;28;20457;-51
2021/12/21 05:01:39;;;;;;;8.47;4.47;;;3.50;99.90;;;;;;5103309;28;20462;-53
2021/12/21 05:04:06;;;;;;;9.90;4.37;;;3.50;99.90;;;;;;5103254;28;20430;-54
2021/12/21 05:06:33;;;;;;;6.23;3.27;;;3.50;99.90;;;;;;5103542;28;20470;-49
2021/12/21 05:09:12;;;;;;;11.40;4.67;;;3.50;99.90;;;;;;5103242;28;20472;-51
2021/12/21 05:11:42;;;;;;;8.23;5.97;;;3.50;99.90;;;;;;5103006;28;20595;-50
2021/12/21 05:14:09;;;;;;;9.17;5.60;;;3.50;99.90;;;;;;5103390;28;20489;-48
2021/12/21 05:16:37;;;;;;;9.80;5.10;;;3.50;99.90;;;;;;5102740;28;20456;-51
2021/12/21 05:19:07;;;;;;;14.90;5.13;;;3.50;99.90;;;;;;5102004;28;20465;-53
2021/12/21 05:21:34;;;;;;;9.50;3.60;;;3.50;99.90;;;;;;5103218;28;20925;-55
2021/12/21 05:24:05;;;;;;;6.70;4.37;;;3.50;99.90;;;;;;5102686;28;20470;-51
2021/12/21 05:26:32;;;;;;;10.50;3.63;;;3.50;99.90;;;;;;5104935;28;20442;-53
2021/12/21 05:28:59;;;;;;;7.80;4.57;;;3.50;99.90;;;;;;5103872;28;20465;-52
2021/12/21 05:31:26;;;;;;;5.10;3.40;;;3.50;99.90;;;;;;5103244;28;20477;-53
2021/12/21 05:33:53;;;;;;;6.40;5.00;;;3.50;99.90;;;;;;5102310;28;20524;-52
2021/12/21 05:36:21;;;;;;;5.80;3.47;;;3.50;99.90;;;;;;5102966;28;20488;-54
2021/12/21 05:38:51;;;;;;;12.37;3.80;;;3.50;99.90;;;;;;5102403;28;20457;-53
2021/12/21 05:41:26;;;;;;;5.73;3.00;;;3.60;99.90;;;;;;5102478;28;20454;-55
2021/12/21 05:43:54;;;;;;;11.93;3.93;;;3.60;99.90;;;;;;5102467;28;20496;-53
2021/12/21 05:46:21;;;;;;;8.93;4.83;;;3.50;99.90;;;;;;5102846;28;20476;-52
2021/12/21 05:48:51;;;;;;;12.83;5.97;;;3.50;99.90;;;;;;5102613;28;20466;-49
2021/12/21 05:51:19;;;;;;;6.33;4.43;;;3.50;99.90;;;;;;5101942;28;20430;-54
2021/12/21 05:53:45;;;;;;;13.03;5.33;;;3.50;99.90;;;;;;5102644;28;20441;-54
2021/12/21 05:56:12;;;;;;;4.30;3.60;;;3.50;99.90;;;;;;5103098;28;21045;-52
2021/12/21 05:58:40;;;;;;;9.03;4.27;;;3.50;99.90;;;;;;5102786;28;20499;-54
2021/12/21 06:01:07;;;;;;;9.40;3.30;;;3.50;99.90;;;;;;5102356;28;20474;-54
2021/12/21 06:03:33;;;;;;;8.07;4.40;;;3.50;99.90;;;;;;5103260;28;20438;-54
2021/12/21 06:06:00;;;;;;;6.37;3.33;;;3.50;99.90;;;;;;5103312;28;20461;-54
2021/12/21 06:08:27;;;;;;;8.93;4.77;;;3.40;99.90;;;;;;5102863;28;20431;-55
2021/12/21 06:10:55;;;;;;;7.30;4.67;;;3.40;99.90;;;;;;5104673;28;20456;-52
2021/12/21 06:13:48;;;;;;;5.03;3.40;;;3.40;99.90;;;;;;5112221;28;20524;-51
2021/12/21 06:16:28;;;;;;;4.80;4.10;;;3.50;99.90;;;;;;5111854;28;20454;-53
2021/12/21 06:27:21;;;;;;;9.47;3.73;;;3.50;99.90;;;;;;5096064;28;20536;-49
2021/12/21 06:29:47;;;;;;;4.33;3.53;;;3.50;99.90;;;;;;5112372;28;20445;-50
2021/12/21 06:32:16;;;;;;;8.17;3.97;;;3.50;99.90;;;;;;5111206;28;20538;-52
2021/12/21 06:34:44;;;;;;;9.00;3.83;;;3.50;99.90;;;;;;5111371;28;20445;-53
2021/12/21 06:37:11;;;;;;;7.33;4.30;;;3.50;99.90;;;;;;5112658;28;20486;-47
2021/12/21 06:39:38;;;;;;;5.93;3.57;;;3.50;99.90;;;;;;5116448;28;20476;-54
2021/12/21 06:42:06;;;;;;;5.63;3.90;;;3.50;99.90;;;;;;5116083;28;20444;-51
2021/12/21 06:44:33;;;;;;;5.40;3.27;;;3.50;99.90;;;;;;5116161;28;20433;-54
2021/12/21 06:51:09;;;;;;;6.17;4.33;;;3.60;99.90;;;;;;5117869;28;20442;-55
2021/12/21 06:52:44;;;;;;;6.93;3.63;;;3.60;99.90;;;;;;5089220;28;20486;-52
2021/12/21 06:55:11;;;;;;;4.10;2.90;;;3.60;99.90;;;;;;5117530;28;20461;-53
2021/12/21 06:57:42;;;;;;;6.33;3.83;;;3.60;99.90;;;;;;5119678;28;20438;-51
2021/12/21 07:00:10;;;;;;;10.43;5.60;;;3.60;99.90;;;;;;5120203;28;20410;-53
2021/12/21 07:02:38;;;;;;;6.77;4.13;;;3.60;99.90;;;;;;5120050;28;20503;-51
2021/12/21 07:05:07;;;;;;;6.90;3.87;;;3.60;99.90;;;;;;5113839;28;20438;-54
2021/12/21 07:07:34;;;;;;;10.23;4.40;;;3.70;99.90;;;;;;5114188;28;20491;-52
2021/12/21 07:10:05;;;;;;;7.00;3.73;;;3.70;99.90;;;;;;5114299;28;20476;-53
2021/12/21 07:18:13;;;;;;;12.03;4.37;;;3.60;99.90;;;;;;5103100;28;20432;-52
2021/12/21 07:20:41;;;;;;;9.33;4.40;;;3.70;99.90;;;;;;5112962;28;20489;-52
2021/12/21 07:23:08;;;;;;;7.00;3.80;;;3.70;99.90;;;;;;5114745;28;20445;-54
2021/12/21 07:25:35;;;;;;;7.67;3.73;;;3.70;99.90;;;;;;5113441;28;20449;-55
2021/12/21 07:28:02;;;;;;;4.90;3.50;;;3.70;99.90;;;;;;5113928;28;20455;-50
2021/12/21 07:30:30;;;;;;;9.93;3.80;;;3.70;99.90;;;;;;5113916;28;20468;-54
2021/12/21 07:32:57;;;;;;;7.80;4.20;;;3.70;99.90;;;;;;5114190;28;20515;-54
2021/12/21 07:35:28;;;;;;;19.20;5.10;;;3.70;99.90;;;;;;5118875;28;20460;-55
2021/12/21 07:37:57;;;;;;;7.70;3.83;;;3.70;99.90;;;;;;5118847;28;20458;-55
2021/12/21 07:40:23;;;;;;;7.37;4.20;;;3.70;99.90;;;;;;5119156;28;20859;-49
2021/12/21 07:42:50;;;;;;;7.97;4.10;;;3.70;99.90;;;;;;5119171;28;20472;-53
2021/12/21 07:45:17;;;;;;;7.33;3.87;;;3.70;99.90;;;;;;5100339;28;20442;-51
2021/12/21 07:47:44;;;;;;;10.10;4.17;;;3.70;99.90;;;;;;5101434;28;20458;-54
2021/12/21 07:50:12;;;;;;;9.20;3.80;;;3.70;99.90;;;;;;5114150;28;20442;-53
2021/12/21 07:52:39;;;;;;;8.33;5.50;;;3.70;99.90;;;;;;5116191;28;20524;-50
2021/12/21 07:55:08;;;;;;;7.10;5.00;;;3.80;99.90;;;;;;5118729;28;20442;-48
2021/12/21 07:57:35;;;;;;;11.70;4.50;;;3.70;99.90;;;;;;5116731;28;20447;-50
2021/12/21 08:00:03;;;;;;;8.97;4.80;;;3.70;99.90;;;;;;5113261;28;20519;-53
2021/12/21 08:02:31;;;;;;;13.97;5.20;;;3.70;99.90;;;;;;5116779;28;20490;-51
2021/12/21 08:04:59;;;;;;;9.67;5.93;;;3.70;99.90;;;;;;5116482;28;20462;-51
2021/12/21 08:07:33;;;;;;;6.60;4.17;;;3.60;99.90;;;;;;5118499;28;20478;-55
2021/12/21 08:10:07;;;;;;;8.67;4.40;;;3.60;99.90;;;;;;5114445;28;20427;-53
2021/12/21 08:12:35;;;;;;;7.47;3.90;;;3.60;99.90;;;;;;5113248;28;20490;-54
2021/12/21 08:15:02;;;;;;;6.93;3.67;;;3.60;99.90;;;;;;5113054;28;20506;-53
2021/12/21 08:17:28;;;;;;;10.63;5.40;;;3.60;99.90;;;;;;5113403;28;20442;-53
2021/12/21 08:19:55;;;;;;;10.00;4.83;;;3.60;99.90;;;;;;5113242;28;20948;-52
2021/12/21 08:22:22;;;;;;;6.23;4.20;;;3.50;99.90;;;;;;5112211;28;20492;-54
2021/12/21 08:24:49;;;;;;;7.50;4.00;;;3.50;99.90;;;;;;5114367;28;20442;-50
2021/12/21 08:27:15;;;;;;;22.23;5.27;;;3.50;99.90;;;;;;5114344;28;20488;-53
2021/12/21 08:29:43;;;;;;;8.00;4.73;;;3.50;99.90;;;;;;5114133;28;20472;-53
2021/12/21 08:32:10;;;;;;;9.13;5.03;;;3.50;99.90;;;;;;5112762;28;20441;-53
2021/12/21 08:34:37;;;;;;;4.97;3.90;;;3.50;99.90;;;;;;5112592;28;20906;-53
2021/12/21 08:37:05;;;;;;;6.20;3.80;;;3.50;99.90;;;;;;5113508;28;20489;-54
2021/12/21 08:39:38;;;;;;;10.73;5.00;;;3.50;99.90;;;;;;5113063;28;20462;-54
2021/12/21 08:42:06;;;;;;;7.40;5.50;;;3.50;99.90;;;;;;5112959;28;20440;-53
2021/12/21 08:44:33;;;;;;;5.80;3.63;;;3.40;99.90;;;;;;5113257;28;20468;-55
2021/12/21 08:47:01;;;;;;;9.30;4.43;;;3.40;99.90;;;;;;5113701;28;20506;-52
2021/12/21 08:49:30;;;;;;;8.13;4.27;;;3.40;99.90;;;;;;5111988;28;20525;-54
2021/12/21 08:51:57;;;;;;;8.23;5.07;;;3.40;99.90;;;;;;5111342;28;20533;-53
2021/12/21 08:54:24;;;;;;;8.63;5.30;;;3.40;99.90;;;;;;5111294;28;20503;-52
2021/12/21 08:56:53;;;;;;;4.87;3.50;;;3.40;99.90;;;;;;5110902;28;20438;-51
2021/12/21 08:59:20;;;;;;;4.10;3.33;;;3.50;99.90;;;;;;5112375;28;20476;-49
2021/12/21 09:01:47;;;;;;;10.83;5.20;;;3.50;99.90;;;;;;5112119;28;20487;-51
2021/12/21 09:04:18;;;;;;;10.43;3.80;;;3.60;99.90;;;;;;5111984;28;20449;-53
2021/12/21 09:06:44;;;;;;;8.43;4.10;;;3.60;99.90;;;;;;5111743;28;20484;-52
2021/12/21 09:09:11;;;;;;;12.73;5.27;;;3.70;99.90;;;;;;5112301;28;20468;-53
2021/12/21 09:11:38;;;;;;;8.53;3.20;;;3.80;99.90;;;;;;5111511;28;20475;-53
2021/12/21 09:14:05;;;;;;;6.97;3.60;;;3.90;99.90;;;;;;5111912;28;20469;-54
2021/12/21 09:16:32;;;;;;;6.60;3.23;;;3.90;99.90;;;;;;5111566;28;21112;-49
2021/12/21 09:19:00;;;;;;;12.03;4.90;;;4.00;99.90;;;;;;5111755;28;20453;-51
2021/12/21 09:21:29;;;;;;;11.70;4.70;;;4.00;99.90;;;;;;5110543;28;20441;-54
2021/12/21 09:23:56;;;;;;;10.40;4.43;;;4.00;99.90;;;;;;5111265;28;20476;-53
2021/12/21 09:26:22;;;;;;;4.60;3.27;;;4.10;99.90;;;;;;5111386;28;20438;-53
2021/12/21 09:28:49;;;;;;;14.87;5.47;;;4.10;99.90;;;;;;5109822;28;20470;-55
2021/12/21 09:31:17;;;;;;;10.30;5.40;;;4.20;99.90;;;;;;5108383;28;20438;-55
2021/12/21 09:33:44;;;;;;;7.43;4.43;;;4.20;99.90;;;;;;5111815;28;20491;-54
2021/12/21 09:36:11;;;;;;;8.80;5.10;;;4.20;99.90;;;;;;5104779;28;20450;-50
2021/12/21 09:38:39;;;;;;;13.30;7.07;;;4.10;99.90;;;;;;5112191;28;20450;-53
2021/12/21 09:41:06;;;;;;;9.00;5.37;;;4.00;99.90;;;;;;5110931;28;20473;-53
2021/12/21 09:43:33;;;;;;;6.70;3.80;;;3.90;99.90;;;;;;5111026;28;20446;-52
2021/12/21 09:46:00;;;;;;;14.53;5.23;;;3.90;99.90;;;;;;5111158;28;20501;-53
2021/12/21 09:48:30;;;;;;;11.00;3.90;;;3.90;99.90;;;;;;5111651;28;20472;-53
2021/12/21 09:50:57;;;;;;;8.63;4.10;;;3.90;99.90;;;;;;5112118;28;20457;-53
2021/12/21 09:53:24;;;;;;;6.93;3.80;;;3.80;99.90;;;;;;5111064;28;20493;-54
2021/12/21 09:55:52;;;;;;;12.53;5.23;;;3.80;99.90;;;;;;5110915;28;20437;-51
2021/12/21 09:58:20;;;;;;;13.43;4.20;;;3.90;99.90;;;;;;5109410;28;20506;-52
2021/12/21 10:00:46;;;;;;;9.17;5.60;;;4.80;99.90;;;;;;5108733;28;20438;-55
2021/12/21 10:03:14;;;;;;;9.67;5.70;;;4.60;99.90;;;;;;5108808;28;20458;-54
2021/12/21 10:05:43;;;;;;;8.27;5.37;;;4.40;99.90;;;;;;5112070;28;20517;-54
2021/12/21 10:08:13;;;;;;;7.20;3.80;;;4.40;99.90;;;;;;5108028;28;20462;-49
2021/12/21 10:10:42;;;;;;;12.73;4.83;;;4.30;99.90;;;;;;5109207;28;20453;-53
2021/12/21 10:13:16;;;;;;;7.77;4.93;;;4.30;99.90;;;;;;5109166;28;20531;-50
2021/12/21 10:15:45;;;;;;;7.53;4.67;;;4.20;99.90;;;;;;5111112;28;20551;-51
2021/12/21 10:18:24;;;;;;;8.27;4.50;;;4.10;99.90;;;;;;5110627;28;20446;-52
2021/12/21 10:20:52;;;;;;;8.30;3.90;;;4.10;99.90;;;;;;5110918;28;20457;-50
2021/12/21 10:23:21;;;;;;;11.20;6.13;;;4.10;99.90;;;;;;5115269;28;20450;-49
2021/12/21 10:25:52;;;;;;;8.33;3.90;;;4.10;99.90;;;;;;5109088;28;20498;-55
2021/12/21 10:28:28;;;;;;;16.20;5.60;;;4.10;99.90;;;;;;5106906;28;20530;-54
2021/12/21 10:30:57;;;;;;;9.57;5.80;;;4.10;99.90;;;;;;5105666;28;20468;-54
2021/12/21 10:33:26;;;;;;;7.93;4.17;;;4.10;99.90;;;;;;5104975;28;20596;-52
2021/12/21 10:35:57;;;;;;;7.20;5.47;;;4.00;99.90;;;;;;5105309;28;20975;-53
2021/12/21 10:38:25;;;;;;;9.70;6.30;;;4.00;99.90;;;;;;5105247;28;20438;-53
2021/12/21 10:40:52;;;;;;;16.47;6.77;;;4.00;99.90;;;;;;5105135;28;20541;-54
2021/12/21 10:43:20;;;;;;;11.13;5.50;;;3.90;99.90;;;;;;5105275;28;20860;-50
2021/12/21 10:45:48;;;;;;;11.00;5.30;;;3.90;99.90;;;;;;5105527;28;20481;-53
2021/12/21 10:48:19;;;;;;;6.67;5.13;;;3.90;99.90;;;;;;5105977;28;20438;-50
2021/12/21 10:50:48;;;;;;;7.77;5.37;;;4.00;99.90;;;;;;5105411;28;20430;-51
2021/12/21 10:53:20;;;;;;;7.80;5.17;;;4.00;99.90;;;;;;5105263;28;20568;-50
2021/12/21 10:55:48;;;;;;;18.40;6.83;;;3.90;99.90;;;;;;5105018;28;20484;-54
2021/12/21 10:58:16;;;;;;;9.27;5.63;;;4.00;99.90;;;;;;5104419;28;20478;-54
2021/12/21 11:00:46;;;;;;;14.10;5.50;;;4.00;99.90;;;;;;5105790;28;20493;-52
2021/12/21 11:03:20;;;;;;;23.87;5.57;;;4.10;99.90;;;;;;5109101;28;20482;-52
2021/12/21 11:05:46;;;;;;;9.93;4.93;;;4.10;99.90;;;;;;5108604;28;20430;-52
2021/12/21 11:08:24;;;;;;;11.07;7.03;;;4.20;99.90;;;;;;5108281;28;20537;-52
2021/12/21 11:10:58;;;;;;;16.37;4.50;;;4.20;99.90;;;;;;5107637;28;20456;-50
2021/12/21 11:13:25;;;;;;;14.83;4.60;;;4.30;99.90;;;;;;5108158;28;20556;-48
2021/12/21 11:15:55;;;;;;;10.40;5.40;;;4.20;99.90;;;;;;5108441;28;20557;-49
2021/12/21 11:18:27;;;;;;;10.73;5.87;;;4.20;99.90;;;;;;5107604;28;20421;-48
2021/12/21 11:20:56;;;;;;;9.77;5.57;;;4.10;99.90;;;;;;5107593;28;20480;-50
2021/12/21 11:23:26;;;;;;;11.03;5.70;;;4.10;99.90;;;;;;5111851;28;20479;-51
2021/12/21 11:25:56;;;;;;;14.47;6.10;;;4.00;99.90;;;;;;5108003;28;20798;-48
2021/12/21 11:28:29;;;;;;;12.47;5.73;;;4.00;99.90;;;;;;5113516;28;20445;-48
2021/12/21 11:31:04;;;;;;;7.03;4.60;;;4.00;99.90;;;;;;5117287;28;20462;-51
2021/12/21 11:33:42;;;;;;;10.30;5.00;;;3.90;99.90;;;;;;5093940;28;20481;-52
2021/12/21 11:38:57;;;;;;;6.50;3.93;;;4.10;99.90;;;;;;5108122;28;20453;-51
2021/12/21 11:41:24;;;;;;;9.10;4.97;;;4.10;99.90;;;;;;5106353;28;20442;-49
2021/12/21 11:44:04;;;;;;;16.93;7.10;;;4.10;99.90;;;;;;5106584;28;20784;-50
2021/12/21 11:46:40;;;;;;;9.10;4.53;;;4.20;99.90;;;;;;5107501;28;20434;-54
2021/12/21 11:49:14;;;;;;;11.10;6.30;;;4.10;99.90;;;;;;5108119;28;20531;-51
2021/12/21 11:51:42;;;;;;;16.10;5.50;;;4.10;99.90;;;;;;5110962;28;20421;-50
2021/12/21 11:54:17;;;;;;;10.73;5.30;;;4.20;99.90;;;;;;5108132;28;20498;-53
2021/12/21 11:56:44;;;;;;;14.00;6.43;;;4.30;99.90;;;;;;5108423;28;20445;-49
2021/12/21 11:59:11;;;;;;;10.40;5.07;;;4.20;99.90;;;;;;5107464;28;20441;-49
2021/12/21 12:01:46;;;;;;;17.43;5.60;;;4.20;99.90;;;;;;5106981;28;20422;-48
2021/12/21 12:04:15;;;;;;;11.27;5.40;;;4.20;99.90;;;;;;5107917;28;20441;-53
2021/12/21 12:06:47;;;;;;;9.40;4.93;;;4.10;99.90;;;;;;5108324;28;20460;-49
2021/12/21 12:09:23;;;;;;;11.93;5.57;;;4.10;99.90;;;;;;5108189;28;20438;-51
2021/12/21 12:11:50;;;;;;;10.47;5.80;;;4.10;99.90;;;;;;5107755;28;20553;-54
2021/12/21 12:14:21;;;;;;;11.50;5.33;;;4.10;99.90;;;;;;5108566;28;20482;-52
2021/12/21 12:16:52;;;;;;;7.80;4.63;;;4.10;99.90;;;;;;5108612;28;20503;-54
2021/12/21 12:19:23;;;;;;;10.03;5.03;;;3.90;99.90;;;;;;5110271;28;20415;-51
2021/12/21 12:21:59;;;;;;;11.47;5.40;;;3.80;99.90;;;;;;5111505;28;20446;-51
2021/12/21 12:24:33;;;;;;;10.93;4.97;;;3.80;99.90;;;;;;5115831;28;20429;-51
2021/12/21 12:27:02;;;;;;;12.90;5.00;;;3.80;99.90;;;;;;5108980;28;20426;-51
2021/12/21 12:29:30;;;;;;;8.67;4.73;;;3.80;99.90;;;;;;5109482;28;20492;-49
2021/12/21 12:32:03;;;;;;;10.30;6.33;;;3.80;99.90;;;;;;5109226;28;20509;-47
2021/12/21 12:34:34;;;;;;;12.93;6.43;;;3.70;99.90;;;;;;5109128;28;20527;-49
2021/12/21 12:37:02;;;;;;;5.13;4.47;;;3.60;99.90;;;;;;5108503;28;20514;-46
2021/12/21 12:39:32;;;;;;;12.10;4.33;;;3.70;99.90;;;;;;5115586;28;20504;-49
2021/12/21 12:42:08;;;;;;;10.17;4.73;;;3.80;99.90;;;;;;5116842;28;20440;-46
2021/12/21 12:44:38;;;;;;;9.47;4.80;;;3.70;99.90;;;;;;5116801;28;20462;-53
2021/12/21 12:47:07;;;;;;;9.87;7.27;;;3.60;99.90;;;;;;5116335;28;20434;-47
2021/12/21 12:49:41;;;;;;;7.90;5.40;;;3.50;99.90;;;;;;5116122;28;20444;-50
2021/12/21 12:52:15;;;;;;;11.13;6.23;;;3.50;99.90;;;;;;5116420;28;20494;-47
2021/12/21 12:54:48;;;;;;;10.40;5.30;;;3.60;99.90;;;;;;5115939;28;20530;-51
2021/12/21 12:57:36;;;;;;;11.87;5.90;;;3.70;99.90;;;;;;5115627;28;20466;-48
2021/12/21 13:00:16;;;;;;;8.07;5.80;;;3.80;99.90;;;;;;5116271;28;20414;-49
2021/12/21 13:02:58;;;;;;;8.30;5.30;;;3.80;99.90;;;;;;5111725;28;20466;-51
2021/12/21 13:05:31;;;;;;;11.30;4.70;;;3.80;99.90;;;;;;5109316;28;20418;-53
2021/12/21 13:08:10;;;;;;;8.10;4.77;;;3.70;99.90;;;;;;5108654;28;20497;-52
2021/12/21 13:10:39;;;;;;;10.33;5.57;;;3.60;99.90;;;;;;5110609;28;20430;-52
2021/12/21 13:13:07;;;;;;;7.97;4.17;;;3.50;99.90;;;;;;5109417;28;20554;-54
2021/12/21 13:15:38;;;;;;;10.30;5.70;;;3.50;99.90;;;;;;5110552;28;20481;-52
2021/12/21 13:18:08;;;;;;;9.77;4.67;;;3.50;99.90;;;;;;5110733;28;20477;-53
2021/12/21 13:20:38;;;;;;;6.53;5.03;;;3.50;99.90;;;;;;5109852;28;20517;-51
2021/12/21 13:23:12;;;;;;;9.50;4.60;;;3.50;99.90;;;;;;5107859;28;20781;-46
2021/12/21 13:25:40;;;;;;;14.40;5.77;;;3.60;99.90;;;;;;5107928;28;20441;-51
2021/12/21 17:09:13;;;;;;;7.20;4.63;;;2.90;99.90;;;;;;5022196;28;20464;-50
2021/12/21 17:11:40;;;;;;;16.10;7.50;;;3.00;99.90;;;;;;5056847;28;20445;-53
2021/12/21 17:14:07;;;;;;;9.40;5.27;;;2.90;99.90;;;;;;5056652;28;20533;-49
2021/12/21 17:16:34;;;;;;;9.27;5.10;;;2.80;99.90;;;;;;5056397;28;20483;-46
2021/12/21 17:19:03;;;;;;;11.53;6.13;;;2.70;99.90;;;;;;5056328;28;20491;-50